Time;durP1;ratioP1;P1;durP2;ratioP2;P2;SDS_P1;SDS_P2;PMS_P1;PMS_P2;Temp;Humidity;BMP_temperature;BMP_pressure;BME280_temperature;BME280_humidity;BME280_pressure;Samples;Min_cycle;Max_cycle;Signal;HPM_P1;HPM_P2
2022/03/21 00:00:56;;;;;;;15.13;8.45;;;;;;;8.23;42.54;101110.84;12196496;19;20282;-79
2022/03/21 00:04:58;;;;;;;14.48;7.82;;;;;;;8.13;43.06;101121.38;12213418;19;20034;-79
2022/03/21 00:09:00;;;;;;;17.90;9.40;;;;;;;8.01;43.55;101135.88;12199828;19;20015;-79
2022/03/21 00:13:03;;;;;;;18.83;9.60;;;;;;;7.92;44.14;101141.50;12217409;19;20010;-79
2022/03/21 00:17:04;;;;;;;17.13;9.20;;;;;;;7.88;44.39;101144.84;12224662;19;20274;-79
2022/03/21 00:21:13;;;;;;;15.55;8.65;;;;;;;7.82;44.26;101149.22;12201691;19;20018;-78
2022/03/21 00:25:14;;;;;;;16.92;8.35;;;;;;;7.75;44.54;101143.69;12209765;19;20085;-79
2022/03/21 00:29:20;;;;;;;17.10;8.25;;;;;;;7.66;44.78;101142.13;12214186;19;20003;-79
2022/03/21 00:33:25;;;;;;;13.73;7.97;;;;;;;7.58;44.61;101147.75;12182683;19;20006;-79
2022/03/21 00:37:27;;;;;;;15.68;8.40;;;;;;;7.48;45.34;101145.34;12209801;19;20015;-79
2022/03/21 00:41:31;;;;;;;18.67;9.20;;;;;;;7.34;45.65;101146.28;12213207;19;20078;-78
2022/03/21 00:45:34;;;;;;;16.40;8.75;;;;;;;7.24;45.95;101143.84;12191759;19;20014;-78
2022/03/21 00:49:36;;;;;;;14.20;7.60;;;;;;;7.17;45.55;101137.47;12201817;19;20002;-79
2022/03/21 00:53:38;;;;;;;15.40;8.23;;;;;;;7.11;45.79;101135.50;12213568;19;20264;-78
2022/03/21 00:57:40;;;;;;;15.68;8.63;;;;;;;7.04;45.92;101131.84;12187134;19;20046;-78
2022/03/21 01:01:42;;;;;;;18.48;9.63;;;;;;;7.02;46.03;101128.44;12201936;19;20535;-78
2022/03/21 01:05:44;;;;;;;16.30;7.60;;;;;;;6.99;45.92;101128.81;12214111;19;20018;-79
2022/03/21 01:09:45;;;;;;;13.70;8.02;;;;;;;6.99;45.89;101129.69;12193473;19;20071;-79
2022/03/21 01:13:47;;;;;;;15.48;8.15;;;;;;;7.01;46.22;101137.72;12210765;19;20023;-80
2022/03/21 01:17:49;;;;;;;17.48;9.18;;;;;;;6.98;46.45;101138.09;12216728;19;20027;-79
2022/03/21 01:21:51;;;;;;;17.60;8.97;;;;;;;6.90;46.48;101124.50;12176856;19;20106;-79
2022/03/21 01:25:52;;;;;;;17.75;9.30;;;;;;;6.84;46.76;101128.88;12215388;19;20027;-79
2022/03/21 01:29:54;;;;;;;17.90;8.88;;;;;;;6.76;46.65;101129.84;12186340;19;20015;-80
2022/03/21 01:33:55;;;;;;;16.48;8.77;;;;;;;6.68;47.16;101124.47;12218985;19;20018;-79
2022/03/21 01:37:57;;;;;;;15.05;9.40;;;;;;;6.62;47.21;101123.34;12204579;19;20110;-80
2022/03/21 01:41:59;;;;;;;14.45;8.27;;;;;;;6.60;47.09;101130.06;12192300;19;20027;-79
2022/03/21 01:46:01;;;;;;;18.80;9.07;;;;;;;6.58;47.14;101129.41;12217908;19;20014;-78
2022/03/21 01:50:04;;;;;;;14.80;8.32;;;;;;;6.54;47.33;101126.22;12215786;19;20011;-79
2022/03/21 01:58:29;;;;;;;15.95;8.95;;;;;;;6.45;47.46;101131.97;12210461;19;20023;-79
2022/03/21 02:02:32;;;;;;;13.43;7.68;;;;;;;6.46;47.19;101133.69;12214555;19;20014;-79
2022/03/21 02:06:34;;;;;;;13.50;7.68;;;;;;;6.49;47.21;101133.31;12185145;19;20032;-79
2022/03/21 02:10:36;;;;;;;14.73;7.50;;;;;;;6.48;47.19;101135.16;12212557;19;20014;-80
2022/03/21 02:14:39;;;;;;;13.93;7.85;;;;;;;6.45;47.29;101127.34;12214797;19;20108;-80
2022/03/21 02:18:44;;;;;;;14.68;7.57;;;;;;;6.42;47.14;101126.88;12183670;19;20010;-80
2022/03/21 02:23:01;;;;;;;17.90;8.73;;;;;;;6.42;47.56;101132.34;12212088;19;20018;-80
2022/03/21 02:27:03;;;;;;;11.50;7.45;;;;;;;6.35;47.43;101129.53;12176692;19;20086;-79
2022/03/21 02:31:05;;;;;;;13.75;7.57;;;;;;;6.32;47.27;101133.50;12193870;19;20418;-79
2022/03/21 02:35:09;;;;;;;15.07;8.73;;;;;;;6.29;47.81;101138.50;12203313;19;20073;-78
2022/03/21 02:39:12;;;;;;;15.98;8.20;;;;;;;6.28;47.43;101140.41;12179696;19;20448;-78
2022/03/21 02:43:14;;;;;;;;;;;;;;;6.28;47.62;101143.13;12199308;19;20078;-79
2022/03/21 02:47:16;;;;;;;16.05;8.40;;;;;;;6.23;47.35;101151.06;12192341;19;20431;-80
2022/03/21 02:51:21;;;;;;;14.80;7.88;;;;;;;6.18;47.66;101152.66;12183473;19;20123;-78
2022/03/21 02:55:23;;;;;;;14.20;8.50;;;;;;;6.12;47.85;101154.25;12194613;19;20472;-78
2022/03/21 02:59:29;;;;;;;16.40;8.52;;;;;;;6.08;48.09;101155.69;12197899;19;20014;-78
2022/03/21 03:03:31;;;;;;;17.02;7.85;;;;;;;6.03;47.96;101155.38;12183706;19;20015;-79
2022/03/21 03:07:34;;;;;;;15.02;8.70;;;;;;;5.98;48.32;101155.97;12197648;19;20010;-78
2022/03/21 03:11:37;;;;;;;16.42;8.27;;;;;;;5.92;48.58;101160.25;12205577;19;20027;-79
2022/03/21 03:15:39;;;;;;;14.18;8.05;;;;;;;5.92;48.27;101164.88;12180409;19;20077;-79
2022/03/21 03:19:40;;;;;;;15.57;8.30;;;;;;;5.92;48.30;101171.19;12197200;19;20078;-78
2022/03/21 03:23:42;;;;;;;16.77;7.50;;;;;;;5.91;48.09;101165.91;12216005;19;20018;-79
2022/03/21 03:27:44;;;;;;;19.17;8.50;;;;;;;5.90;48.08;101167.78;12195130;19;20104;-79
2022/03/21 03:31:46;;;;;;;15.35;7.80;;;;;;;5.86;48.50;101177.41;12213777;19;20016;-79
2022/03/21 03:35:48;;;;;;;14.07;8.18;;;;;;;5.84;48.56;101173.16;12213133;19;20011;-80
2022/03/21 03:39:49;;;;;;;14.77;8.35;;;;;;;5.78;48.77;101177.47;12200563;19;20033;-78
2022/03/21 03:43:52;;;;;;;16.17;7.40;;;;;;;5.75;48.70;101179.75;12220359;19;20011;-79
2022/03/21 03:47:54;;;;;;;14.98;7.80;;;;;;;5.70;48.67;101177.56;12191003;19;20022;-79
2022/03/21 03:51:56;;;;;;;11.43;7.05;;;;;;;5.65;48.87;101186.31;12211741;19;20011;-78
2022/03/21 03:55:57;;;;;;;14.13;7.22;;;;;;;5.60;49.10;101183.28;12212379;19;20139;-79
2022/03/21 03:59:59;;;;;;;15.52;7.25;;;;;;;5.55;49.26;101184.88;12196573;19;20007;-78
2022/03/21 04:04:01;;;;;;;14.55;7.75;;;;;;;5.48;49.53;101188.34;12201254;19;20018;-79
2022/03/21 04:08:03;;;;;;;14.82;7.60;;;;;;;5.45;49.53;101194.16;12210407;19;20011;-77
2022/03/21 04:12:05;;;;;;;15.50;7.90;;;;;;;5.39;49.57;101194.91;12186050;19;20014;-76
2022/03/21 04:16:07;;;;;;;16.13;7.25;;;;;;;5.34;49.66;101189.13;12207899;19;20006;-77
2022/03/21 04:20:10;;;;;;;14.90;7.33;;;;;;;5.31;49.83;101194.09;12217387;19;20021;-77
2022/03/21 04:24:11;;;;;;;15.55;7.40;;;;;;;5.27;49.79;101199.09;12190810;19;20003;-77
2022/03/21 04:28:15;;;;;;;13.93;7.38;;;;;;;5.23;49.85;101211.41;12213664;19;20006;-77
2022/03/21 04:32:17;;;;;;;18.15;8.32;;;;;;;5.17;50.21;101212.97;12211541;19;20010;-78
2022/03/21 04:36:19;;;;;;;17.33;7.80;;;;;;;5.13;50.22;101213.53;12187132;19;20727;-77
2022/03/21 04:40:26;;;;;;;15.00;7.30;;;;;;;5.07;50.48;101214.25;12217195;19;20023;-78
2022/03/21 04:44:28;;;;;;;12.60;7.23;;;;;;;5.03;50.50;101220.06;12208438;19;20025;-78
2022/03/21 04:48:30;;;;;;;14.53;7.77;;;;;;;4.99;50.70;101232.38;12183356;19;20021;-77
2022/03/21 04:52:32;;;;;;;13.75;7.03;;;;;;;4.95;50.82;101227.44;12216598;19;20006;-77
2022/03/21 04:56:34;;;;;;;13.93;7.87;;;;;;;4.94;50.63;101231.22;12208375;19;20019;-77
2022/03/21 05:00:37;;;;;;;14.13;7.65;;;;;;;4.95;50.59;101235.66;12184456;19;20010;-77
2022/03/21 05:04:39;;;;;;;14.07;8.48;;;;;;;4.93;50.89;101233.06;12202916;19;20082;-78
2022/03/21 05:08:41;;;;;;;15.00;8.30;;;;;;;4.91;50.96;101237.88;12212256;19;20082;-76
2022/03/21 05:12:43;;;;;;;14.73;7.77;;;;;;;4.91;51.04;101248.81;12192279;19;20018;-77
2022/03/21 05:16:49;;;;;;;13.32;7.25;;;;;;;4.86;51.04;101248.50;12205724;19;20015;-78
2022/03/21 05:20:51;;;;;;;12.52;7.55;;;;;;;4.85;51.29;101251.38;12200210;19;20011;-77
2022/03/21 05:37:55;;;;;;;12.60;7.53;;;;;;;4.85;51.07;101246.78;12204870;19;20447;-77
2022/03/21 05:41:57;;;;;;;17.80;9.35;;;;;;;4.87;51.15;101250.19;12186551;19;20035;-77
2022/03/21 05:46:03;;;;;;;13.82;7.60;;;;;;;4.88;51.26;101243.72;12210264;19;20023;-77
2022/03/21 05:50:09;;;;;;;15.18;7.57;;;;;;;4.91;51.34;101254.28;12200585;19;20358;-78
2022/03/21 05:54:12;;;;;;;15.18;7.65;;;;;;;4.97;51.21;101259.03;12173482;19;20440;-77
2022/03/21 05:58:14;;;;;;;13.32;7.38;;;;;;;5.05;51.46;101249.94;12214039;19;20011;-76
2022/03/21 06:02:23;;;;;;;15.00;7.30;;;;;;;5.16;51.26;101251.41;12204956;19;20025;-78
2022/03/21 06:06:31;;;;;;;16.70;7.43;;;;;;;5.25;50.86;101253.06;12180568;19;20006;-77
2022/03/21 06:10:36;;;;;;;16.40;8.02;;;;;;;5.31;50.86;101260.56;12214956;19;20023;-78
2022/03/21 06:14:39;;;;;;;15.38;7.93;;;;;;;5.41;50.97;101268.50;12198705;19;20425;-78
2022/03/21 06:18:42;;;;;;;13.67;8.33;;;;;;;5.49;50.91;101276.66;12184896;19;20045;-77
2022/03/21 06:22:44;;;;;;;15.10;8.17;;;;;;;5.56;51.00;101279.53;12203294;19;20006;-79
2022/03/21 06:26:46;;;;;;;16.15;7.50;;;;;;;5.64;51.25;101282.22;12207451;19;20027;-79
2022/03/21 06:30:50;;;;;;;15.37;7.90;;;;;;;5.71;51.06;101284.06;12175188;19;20082;-78
2022/03/21 06:34:52;;;;;;;14.15;7.97;;;;;;;5.82;50.85;101285.50;12199493;19;20010;-77
2022/03/21 06:38:54;;;;;;;16.37;7.47;;;;;;;5.92;50.58;101301.69;12183910;19;20006;-80
2022/03/21 06:42:55;;;;;;;13.25;8.07;;;;;;;6.01;50.67;101302.47;12207889;19;20027;-78
2022/03/21 06:46:58;;;;;;;12.88;7.38;;;;;;;6.12;50.11;101307.50;12187520;19;20070;-79
2022/03/21 06:51:00;;;;;;;13.57;7.40;;;;;;;6.27;50.11;101305.66;12162477;19;20032;-78
2022/03/21 06:55:03;;;;;;;13.55;8.10;;;;;;;6.42;49.70;101307.59;12211206;19;20017;-78
2022/03/21 06:59:10;;;;;;;12.85;7.35;;;;;;;6.55;49.84;101313.28;12198308;19;20014;-79
2022/03/21 07:03:17;;;;;;;15.05;7.90;;;;;;;6.71;49.20;101323.22;12188668;19;20018;-79
2022/03/21 07:07:26;;;;;;;15.48;7.47;;;;;;;6.89;49.17;101325.59;12189535;19;20507;-78
2022/03/21 07:11:34;;;;;;;13.00;7.95;;;;;;;7.06;49.17;101327.09;12205130;19;20010;-78
2022/03/21 07:15:44;;;;;;;15.25;7.53;;;;;;;7.25;49.10;101336.63;12173605;19;20077;-77
2022/03/21 07:19:47;;;;;;;14.02;7.85;;;;;;;7.44;48.67;101340.69;12203749;19;20014;-79
2022/03/21 07:23:50;;;;;;;13.65;8.35;;;;;;;7.64;48.31;101343.66;12194758;19;21413;-78
2022/03/21 07:27:52;;;;;;;13.82;7.60;;;;;;;7.83;47.38;101347.69;12212787;19;20018;-79
2022/03/21 07:31:54;;;;;;;14.85;8.80;;;;;;;7.98;46.40;101349.31;12207180;19;20568;-80
2022/03/21 07:35:56;;;;;;;13.55;8.30;;;;;;;8.20;46.51;101347.41;12176225;19;20044;-80
2022/03/21 07:39:58;;;;;;;16.02;8.52;;;;;;;8.44;45.95;101345.34;12201794;19;20033;-79
2022/03/21 07:44:00;;;;;;;19.75;9.10;;;;;;;8.70;45.81;101346.59;12205691;19;20394;-78
2022/03/21 07:48:04;;;;;;;18.27;9.10;;;;;;;8.90;44.93;101353.09;12180656;19;20352;-78
2022/03/21 07:52:06;;;;;;;15.70;8.90;;;;;;;9.15;44.89;101360.84;12209781;19;20039;-78
2022/03/21 07:56:08;;;;;;;18.30;8.45;;;;;;;9.34;44.11;101360.13;12199781;19;20006;-79
2022/03/21 08:00:11;;;;;;;18.75;9.77;;;;;;;9.54;44.09;101371.22;12172474;19;20036;-79
2022/03/21 08:04:14;;;;;;;18.85;9.43;;;;;;;9.74;43.43;101365.78;12201803;19;20341;-79
2022/03/21 08:08:22;;;;;;;19.17;9.45;;;;;;;9.89;43.11;101374.72;12213297;19;20017;-78
2022/03/21 08:12:42;;;;;;;17.50;9.32;;;;;;;10.08;42.46;101373.06;12190686;19;20018;-78
2022/03/21 08:16:47;;;;;;;19.02;11.00;;;;;;;10.18;42.24;101372.69;12215461;19;20011;-79
2022/03/21 08:20:48;;;;;;;18.90;11.27;;;;;;;10.39;42.39;101374.44;12218262;19;20003;-79
2022/03/21 08:24:52;;;;;;;17.95;10.02;;;;;;;10.55;42.32;101373.19;12190827;19;20021;-80
2022/03/21 08:28:54;;;;;;;;;;;;;;;10.78;42.17;101372.75;12215464;19;20010;-78
2022/03/21 08:32:56;;;;;;;16.42;9.95;;;;;;;11.00;41.79;101373.34;12193266;19;20361;-78
2022/03/21 08:36:58;;;;;;;18.42;11.30;;;;;;;11.25;41.76;101384.56;12211197;19;20077;-78
2022/03/21 08:41:02;;;;;;;20.42;11.55;;;;;;;11.29;41.56;101388.59;12210766;19;20035;-79
2022/03/21 08:45:06;;;;;;;;;;;;;;;11.38;41.18;101385.38;12185815;19;20357;-80
2022/03/21 08:49:27;;;;;;;18.25;10.73;;;;;;;11.39;41.24;101387.09;12209982;19;19910;-79
2022/03/21 08:53:34;;;;;;;21.77;10.73;;;;;;;11.57;40.63;101383.63;12214245;19;20035;-80
2022/03/21 08:57:36;;;;;;;;;;;;;;;11.68;40.01;101376.56;12187092;19;20017;-78
2022/03/21 09:01:38;;;;;;;21.60;11.27;;;;;;;11.71;40.22;101373.34;12210748;19;19931;-79
2022/03/21 09:05:40;;;;;;;20.08;11.60;;;;;;;11.78;40.13;101374.19;12211069;19;20027;-79
2022/03/21 09:09:43;;;;;;;22.02;11.75;;;;;;;11.97;39.19;101369.66;12190123;19;20658;-79
2022/03/21 09:13:47;;;;;;;21.55;10.82;;;;;;;12.34;39.42;101377.28;12213786;19;20014;-79
2022/03/21 09:17:50;;;;;;;21.30;11.02;;;;;;;12.49;38.91;101380.56;12202852;19;20010;-79
2022/03/21 09:21:53;;;;;;;18.80;11.15;;;;;;;12.57;38.73;101376.69;12212202;19;20085;-79
2022/03/21 09:25:55;;;;;;;16.88;11.00;;;;;;;12.68;38.84;101367.66;12215904;19;20018;-80
2022/03/21 09:29:57;;;;;;;19.20;11.38;;;;;;;12.82;38.26;101365.63;12183026;19;20018;-79
2022/03/21 09:33:59;;;;;;;19.70;11.55;;;;;;;12.92;38.13;101372.34;12209023;19;20007;-80
2022/03/21 09:38:03;;;;;;;20.83;11.87;;;;;;;13.00;38.16;101371.22;12212885;19;20783;-79
2022/03/21 09:42:06;;;;;;;21.75;10.65;;;;;;;13.04;37.41;101371.59;12196829;19;20263;-81
2022/03/21 09:46:10;;;;;;;18.65;11.63;;;;;;;13.39;37.76;101367.19;12211345;19;20031;-81
2022/03/21 09:50:13;;;;;;;19.10;11.00;;;;;;;13.69;37.14;101366.41;12216110;19;20003;-82
2022/03/21 09:54:17;;;;;;;22.40;11.75;;;;;;;13.62;36.46;101362.88;12189865;19;20101;-83
2022/03/21 09:58:23;;;;;;;20.45;12.02;;;;;;;13.63;36.77;101356.25;12221787;19;20030;-81
2022/03/21 10:02:28;;;;;;;21.80;11.93;;;;;;;13.93;37.00;101347.97;12231767;19;20017;-82
2022/03/21 10:06:37;;;;;;;20.73;12.82;;;;;;;14.05;36.48;101350.78;12201813;19;20006;-81
2022/03/21 10:10:40;;;;;;;23.05;13.23;;;;;;;14.18;36.68;101346.97;12183197;19;20011;-80
2022/03/21 10:14:48;;;;;;;20.98;12.13;;;;;;;14.29;36.38;101352.56;12209236;19;20436;-80
2022/03/21 10:18:52;;;;;;;22.33;11.88;;;;;;;14.43;36.16;101346.81;12198122;19;20018;-82
2022/03/21 10:22:56;;;;;;;23.38;11.35;;;;;;;14.57;35.64;101348.28;12215580;19;20023;-79
2022/03/21 10:27:02;;;;;;;21.67;12.20;;;;;;;14.57;35.78;101343.63;12181934;19;20018;-81
2022/03/21 10:31:05;;;;;;;19.08;11.77;;;;;;;14.90;35.93;101339.41;12211001;19;20018;-81
2022/03/21 10:35:22;;;;;;;18.25;10.45;;;;;;;15.06;35.31;101337.84;12208035;19;20007;-82
2022/03/21 10:39:33;;;;;;;21.85;12.80;;;;;;;15.06;35.30;101337.84;12185146;19;20022;-81
2022/03/21 10:43:36;;;;;;;22.92;12.55;;;;;;;15.30;35.28;101335.88;12208410;19;20006;-81
2022/03/21 10:47:51;;;;;;;19.87;11.20;;;;;;;15.65;35.44;101337.72;12206683;19;20364;-80
2022/03/21 10:51:54;;;;;;;23.88;12.43;;;;;;;16.02;35.48;101331.81;12183833;19;20563;-83
2022/03/21 10:56:02;;;;;;;;;;;;;;;15.98;34.39;101336.19;12205869;19;20022;-79
2022/03/21 11:00:22;;;;;;;21.10;12.50;;;;;;;16.09;34.47;101326.91;12180518;19;19918;-79
2022/03/21 11:04:29;;;;;;;18.58;11.73;;;;;;;16.09;34.23;101325.00;12206556;19;20018;-80
2022/03/21 11:08:35;;;;;;;24.95;13.02;;;;;;;16.16;34.29;101319.28;12200259;19;20034;-80
2022/03/21 11:12:42;;;;;;;20.67;12.15;;;;;;;16.14;34.07;101310.34;12181682;19;20018;-80
2022/03/21 11:16:45;;;;;;;24.08;11.73;;;;;;;16.14;34.42;101310.34;12205165;19;20460;-80
2022/03/21 11:20:47;;;;;;;23.40;12.33;;;;;;;16.10;34.04;101310.00;12206688;19;20014;-81
2022/03/21 11:24:52;;;;;;;23.75;13.18;;;;;;;16.11;34.21;101303.31;12182515;19;20382;-80
2022/03/21 11:29:41;;;;;;;19.92;12.85;;;;;;;16.13;33.62;101305.88;12195917;19;20011;-80
2022/03/21 11:34:04;;;;;;;19.75;11.90;;;;;;;16.27;33.76;101310.03;12179950;19;20010;-80
2022/03/21 11:38:27;;;;;;;22.33;12.00;;;;;;;16.48;33.76;101299.22;12194495;19;20080;-80
2022/03/21 11:42:31;;;;;;;;;;;;;;;16.77;33.29;101295.28;12187759;19;20015;-79
2022/03/21 11:46:35;;;;;;;24.55;11.90;;;;;;;16.98;33.20;101290.84;12212125;19;20066;-80
2022/03/21 11:50:41;;;;;;;20.65;12.15;;;;;;;17.44;33.09;101287.84;12221322;19;20019;-79
2022/03/21 11:54:44;;;;;;;22.10;12.38;;;;;;;17.85;32.77;101282.78;12186726;19;20432;-79
2022/03/21 11:58:49;;;;;;;20.50;12.05;;;;;;;17.98;32.26;101283.19;12212392;19;20027;-80
2022/03/21 12:02:57;;;;;;;21.55;12.30;;;;;;;18.54;31.66;101284.81;12191407;19;20014;-79
2022/03/21 12:07:20;;;;;;;20.65;13.10;;;;;;;18.76;31.82;101267.97;12211281;19;20073;-80
2022/03/21 12:11:38;;;;;;;18.40;12.40;;;;;;;19.06;31.27;101265.34;12213965;19;20014;-79
2022/03/21 12:15:53;;;;;;;18.80;12.98;;;;;;;19.48;30.79;101258.84;12204290;19;20588;-79
2022/03/21 12:19:58;;;;;;;21.77;14.07;;;;;;;19.74;30.14;101256.13;12231366;19;20017;-81
2022/03/21 12:24:17;;;;;;;20.65;13.90;;;;;;;19.73;29.23;101251.66;12191372;19;20006;-79
2022/03/21 12:32:55;;;;;;;19.00;13.45;;;;;;;20.72;28.91;101241.06;12215656;19;20719;-79
2022/03/21 12:37:06;;;;;;;19.25;13.00;;;;;;;21.58;29.33;101234.31;12189531;19;20098;-80
2022/03/21 12:41:11;;;;;;;19.38;13.35;;;;;;;22.31;26.68;101235.53;12209005;19;20007;-82
2022/03/21 12:45:19;;;;;;;21.52;13.35;;;;;;;21.81;27.01;101227.19;12195446;19;20011;-81
2022/03/21 12:49:22;;;;;;;21.35;13.32;;;;;;;22.13;27.18;101224.97;12215073;19;20013;-80
2022/03/21 12:53:34;;;;;;;;;;;;;;;22.53;27.08;101226.63;12210748;19;20018;-80
2022/03/21 12:58:04;;;;;;;22.88;13.75;;;;;;;22.22;27.28;101223.25;12188996;19;20251;-80
2022/03/21 13:02:06;;;;;;;23.15;13.43;;;;;;;22.18;27.36;101214.56;12213466;19;20110;-82
2022/03/21 13:10:38;;;;;;;20.77;12.82;;;;;;;22.12;27.56;101224.13;12203683;19;20014;-81
2022/03/21 13:14:42;;;;;;;18.30;13.27;;;;;;;22.10;27.62;101215.19;12208917;19;20014;-81
2022/03/21 13:18:44;;;;;;;20.70;12.93;;;;;;;21.33;27.63;101217.63;12190010;19;20071;-81
2022/03/21 13:22:49;;;;;;;18.70;12.95;;;;;;;20.88;28.58;101219.47;12212463;19;20011;-83
2022/03/21 13:26:56;;;;;;;20.42;12.82;;;;;;;20.63;28.90;101210.00;12196871;19;20358;-81
2022/03/21 13:31:01;;;;;;;19.45;12.43;;;;;;;20.44;29.09;101212.53;12213503;19;20014;-80
2022/03/21 13:35:03;;;;;;;19.02;13.30;;;;;;;20.12;29.31;101203.59;12215691;19;20707;-80
2022/03/21 13:39:22;;;;;;;23.00;13.13;;;;;;;19.91;29.42;101208.34;12179919;19;20011;-80
2022/03/21 13:43:28;;;;;;;19.50;12.55;;;;;;;19.59;29.60;101207.41;12208581;19;20011;-80
2022/03/21 13:47:46;;;;;;;22.10;13.38;;;;;;;19.58;30.23;101204.91;12209404;19;20006;-80
2022/03/21 13:51:48;;;;;;;24.80;13.88;;;;;;;19.44;29.88;101209.34;12188731;19;20017;-80
2022/03/21 13:55:51;;;;;;;26.10;13.90;;;;;;;19.39;30.12;101201.75;12204569;19;20011;-79
2022/03/21 14:00:13;;;;;;;23.02;13.50;;;;;;;19.31;30.40;101202.31;12185644;19;20007;-80
2022/03/21 14:04:24;;;;;;;26.13;13.05;;;;;;;19.41;30.20;101199.53;12215081;19;20010;-80
2022/03/21 14:08:26;;;;;;;21.48;13.25;;;;;;;19.49;30.03;101195.38;12205718;19;20592;-80
2022/03/21 14:12:29;;;;;;;20.37;12.60;;;;;;;19.34;29.71;101193.38;12180009;19;20007;-80
2022/03/21 14:16:32;;;;;;;23.17;13.10;;;;;;;19.48;29.97;101186.16;12201397;19;20011;-80
2022/03/21 14:20:34;;;;;;;18.17;12.43;;;;;;;19.47;30.00;101169.66;12211392;19;20010;-82
2022/03/21 14:24:36;;;;;;;19.13;11.80;;;;;;;19.54;30.20;101176.66;12185623;19;20014;-81
2022/03/21 14:28:38;;;;;;;21.70;12.93;;;;;;;19.44;29.87;101171.03;12212605;19;20011;-82
2022/03/21 14:32:39;;;;;;;23.42;13.73;;;;;;;19.15;30.26;101181.00;12223095;19;20006;-81
2022/03/21 14:36:43;;;;;;;26.10;13.05;;;;;;;19.04;30.36;101178.19;12191207;19;20027;-80
2022/03/21 14:40:46;;;;;;;20.85;13.60;;;;;;;18.94;30.56;101175.34;12213258;19;20006;-81
2022/03/21 14:44:48;;;;;;;20.83;13.75;;;;;;;18.88;30.18;101184.81;12214045;19;20024;-81
2022/03/21 14:48:50;;;;;;;19.90;12.77;;;;;;;18.81;30.88;101185.06;12185131;19;20014;-80
2022/03/21 14:52:52;;;;;;;20.15;12.75;;;;;;;18.77;31.03;101174.69;12211011;19;20010;-80
2022/03/21 14:56:54;;;;;;;21.83;13.33;;;;;;;18.78;30.82;101173.59;12183521;19;20347;-80
2022/03/21 15:00:56;;;;;;;17.70;12.20;;;;;;;18.74;30.59;101167.72;12205840;19;20255;-79
2022/03/21 15:04:58;;;;;;;21.88;12.15;;;;;;;18.77;30.39;101161.59;12212970;19;20003;-81
2022/03/21 15:09:00;;;;;;;21.40;13.03;;;;;;;18.64;30.64;101159.25;12190304;19;20079;-82
2022/03/21 15:13:04;;;;;;;17.95;11.48;;;;;;;18.53;31.08;101160.28;12202565;19;20011;-80
2022/03/21 15:17:06;;;;;;;18.38;11.95;;;;;;;18.49;31.24;101160.00;12201381;19;20020;-79
2022/03/21 15:21:22;;;;;;;20.80;12.35;;;;;;;18.37;31.14;101153.78;12183634;19;20051;-80
2022/03/21 15:25:30;;;;;;;23.17;12.85;;;;;;;18.33;30.98;101152.66;12189560;19;20007;-80
2022/03/21 15:29:40;;;;;;;18.65;12.27;;;;;;;18.21;31.07;101150.06;12201406;19;20018;-80
2022/03/21 15:33:43;;;;;;;19.73;11.48;;;;;;;18.39;31.27;101158.00;12178140;19;20018;-81
2022/03/21 15:42:05;;;;;;;21.02;12.32;;;;;;;18.05;31.62;101146.28;12179850;19;20013;-80
2022/03/21 15:46:11;;;;;;;21.55;11.30;;;;;;;17.92;31.67;101141.19;12198178;19;19998;-79
2022/03/21 15:50:13;;;;;;;19.58;12.75;;;;;;;17.72;31.62;101148.22;12197966;19;20011;-78
2022/03/21 15:54:15;;;;;;;18.20;11.38;;;;;;;17.54;31.77;101149.44;12182018;19;20041;-78
2022/03/21 15:58:24;;;;;;;25.63;12.20;;;;;;;17.36;31.44;101147.03;12195803;19;20014;-79
2022/03/21 16:02:30;;;;;;;21.23;12.55;;;;;;;17.26;31.95;101138.59;12191136;19;20490;-78
2022/03/21 16:06:32;;;;;;;18.58;11.50;;;;;;;17.15;31.98;101148.75;12166418;19;20086;-78
2022/03/21 16:10:35;;;;;;;17.27;11.32;;;;;;;17.09;32.37;101141.47;12197108;19;20014;-78
2022/03/21 16:14:37;;;;;;;19.67;10.88;;;;;;;16.93;32.69;101143.22;12200766;19;20031;-79
2022/03/21 16:18:41;;;;;;;18.95;12.27;;;;;;;16.71;33.46;101148.75;12175096;19;20018;-78
2022/03/21 16:22:47;;;;;;;25.83;12.73;;;;;;;16.51;33.72;101154.03;12194605;19;20006;-78
2022/03/21 16:26:51;;;;;;;19.85;11.10;;;;;;;16.40;33.61;101151.13;12195848;19;20368;-79
2022/03/21 16:30:54;;;;;;;18.02;11.35;;;;;;;16.16;34.37;101144.09;12185720;19;20018;-79
2022/03/21 16:34:56;;;;;;;20.83;12.32;;;;;;;15.97;34.37;101149.03;12212648;19;20378;-79
2022/03/21 16:38:58;;;;;;;19.02;10.80;;;;;;;15.84;34.23;101149.41;12188568;19;20385;-80
2022/03/21 16:43:18;;;;;;;18.85;11.30;;;;;;;15.64;34.58;101155.41;12215160;19;20028;-80
2022/03/21 16:47:25;;;;;;;17.70;10.10;;;;;;;15.38;35.37;101154.13;12214432;19;20494;-78
2022/03/21 16:51:28;;;;;;;20.17;11.47;;;;;;;15.14;35.67;101151.44;12192009;19;20484;-78
2022/03/21 16:55:30;;;;;;;16.90;10.60;;;;;;;14.88;35.51;101152.03;12206005;19;20027;-78
2022/03/21 16:59:37;;;;;;;18.05;10.52;;;;;;;14.69;35.34;101154.09;12199713;19;20075;-78
2022/03/21 17:03:39;;;;;;;18.73;10.55;;;;;;;14.51;35.63;101152.28;12182211;19;20018;-79
2022/03/21 17:07:45;;;;;;;;;;;;;;;14.26;35.89;101152.56;12206411;19;20092;-79
2022/03/21 17:11:47;;;;;;;19.00;10.18;;;;;;;14.03;36.06;101159.78;12204695;19;19991;-78
2022/03/21 17:15:49;;;;;;;24.83;11.90;;;;;;;13.86;36.00;101165.19;12178238;19;20484;-78
2022/03/21 17:24:12;;;;;;;19.95;10.75;;;;;;;13.42;36.88;101148.00;12182904;19;20013;-80
2022/03/21 17:28:14;;;;;;;23.75;12.07;;;;;;;13.19;37.47;101159.78;12193354;19;20026;-78
2022/03/21 17:32:17;;;;;;;22.92;12.13;;;;;;;12.93;37.84;101157.38;12204318;19;20014;-78
2022/03/21 17:36:30;;;;;;;18.00;10.00;;;;;;;12.69;38.02;101154.47;12185741;19;20010;-79
2022/03/21 17:40:35;;;;;;;19.20;10.52;;;;;;;12.52;37.85;101164.44;12207405;19;20018;-78
2022/03/21 17:44:37;;;;;;;16.27;9.95;;;;;;;12.32;38.61;101171.06;12214056;19;20029;-77
2022/03/21 17:48:40;;;;;;;21.92;10.32;;;;;;;12.12;38.88;101164.88;12173872;19;20090;-78
2022/03/21 17:52:42;;;;;;;17.40;9.82;;;;;;;11.90;38.79;101172.75;12212478;19;20033;-78
2022/03/21 17:56:44;;;;;;;15.68;9.90;;;;;;;11.78;38.69;101180.88;12209424;19;20516;-77
2022/03/21 18:00:47;;;;;;;18.48;9.20;;;;;;;11.67;38.79;101173.31;12176471;19;20097;-77
2022/03/21 18:04:48;;;;;;;18.15;9.43;;;;;;;11.60;38.49;101186.28;12198291;19;20011;-77
2022/03/21 18:08:53;;;;;;;19.00;9.77;;;;;;;11.51;38.44;101188.50;12176280;19;20037;-78
2022/03/21 18:12:55;;;;;;;16.70;8.90;;;;;;;11.40;38.52;101184.53;12201639;19;20034;-78
2022/03/21 18:16:57;;;;;;;16.53;8.63;;;;;;;11.33;38.51;101189.25;12190445;19;20014;-77
2022/03/21 18:20:59;;;;;;;15.77;8.88;;;;;;;11.26;38.75;101201.38;12177120;19;20795;-79
2022/03/21 18:25:03;;;;;;;14.85;9.38;;;;;;;11.18;38.82;101196.94;12192687;19;20017;-79
2022/03/21 18:29:07;;;;;;;17.42;9.57;;;;;;;11.07;39.06;101192.16;12196704;19;20007;-79
2022/03/21 18:33:10;;;;;;;17.03;10.60;;;;;;;11.01;39.21;101199.38;12176506;19;20012;-78
2022/03/21 18:37:12;;;;;;;24.23;11.07;;;;;;;10.97;39.17;101202.78;12195545;19;20010;-78
2022/03/21 18:41:14;;;;;;;19.83;9.25;;;;;;;10.89;39.30;101203.91;12203955;19;20003;-79
2022/03/21 18:45:21;;;;;;;13.77;9.35;;;;;;;10.79;39.86;101207.09;12176169;19;20011;-79
2022/03/21 18:49:25;;;;;;;19.60;9.05;;;;;;;10.72;39.78;101214.53;12202823;19;20680;-80
2022/03/21 18:53:27;;;;;;;28.77;15.03;;;;;;;10.65;40.09;101208.22;12209714;19;20038;-79
2022/03/21 18:57:30;;;;;;;;;;;;;;;10.65;40.19;101211.81;12181424;19;20010;-79
2022/03/21 19:01:33;;;;;;;20.40;10.57;;;;;;;10.59;39.90;101225.59;12200075;19;19915;-79
2022/03/21 19:05:47;;;;;;;18.07;10.57;;;;;;;10.49;40.40;101215.88;12206969;19;20070;-80
2022/03/21 19:09:54;;;;;;;17.98;10.45;;;;;;;10.43;40.06;101225.00;12178127;19;20104;-78